sensor_id;sensor_type;location;lat;lon;timestamp;temperature;humidity
16315;DHT22;8266;52.150;4.768;2023-05-10T00:00:43;15.60;99.90
16315;DHT22;8266;52.150;4.768;2023-05-10T00:03:10;15.60;99.90
16315;DHT22;8266;52.150;4.768;2023-05-10T00:05:37;15.50;99.90
16315;DHT22;8266;52.150;4.768;2023-05-10T00:08:04;15.50;99.90
16315;DHT22;8266;52.150;4.768;2023-05-10T00:10:32;15.50;99.90
16315;DHT22;8266;52.150;4.768;2023-05-10T00:12:59;15.40;99.90
16315;DHT22;8266;52.150;4.768;2023-05-10T00:15:26;15.40;99.90
16315;DHT22;8266;52.150;4.768;2023-05-10T00:17:53;15.40;99.90
16315;DHT22;8266;52.150;4.768;2023-05-10T00:20:20;15.30;99.90
16315;DHT22;8266;52.150;4.768;2023-05-10T00:22:47;15.30;99.90
16315;DHT22;8266;52.150;4.768;2023-05-10T00:25:14;15.30;99.90
16315;DHT22;8266;52.150;4.768;2023-05-10T00:27:42;15.30;99.90
16315;DHT22;8266;52.150;4.768;2023-05-10T00:30:09;15.20;99.90
16315;DHT22;8266;52.150;4.768;2023-05-10T00:32:36;15.20;99.90
16315;DHT22;8266;52.150;4.768;2023-05-10T00:35:04;15.20;99.90
16315;DHT22;8266;52.150;4.768;2023-05-10T00:37:31;15.20;99.90
16315;DHT22;8266;52.150;4.768;2023-05-10T00:39:58;15.20;99.90
16315;DHT22;8266;52.150;4.768;2023-05-10T00:42:25;15.20;99.90
16315;DHT22;8266;52.150;4.768;2023-05-10T00:44:53;15.10;99.90
16315;DHT22;8266;52.150;4.768;2023-05-10T00:47:21;15.10;99.90
16315;DHT22;8266;52.150;4.768;2023-05-10T00:49:48;15.10;99.90
16315;DHT22;8266;52.150;4.768;2023-05-10T00:52:15;15.00;99.90
16315;DHT22;8266;52.150;4.768;2023-05-10T00:54:42;15.00;99.90
16315;DHT22;8266;52.150;4.768;2023-05-10T00:57:09;15.00;99.90
16315;DHT22;8266;52.150;4.768;2023-05-10T00:59:36;14.90;99.90
16315;DHT22;8266;52.150;4.768;2023-05-10T01:02:05;14.90;99.90
16315;DHT22;8266;52.150;4.768;2023-05-10T01:04:33;14.90;99.90
16315;DHT22;8266;52.150;4.768;2023-05-10T01:07:01;14.90;99.90
16315;DHT22;8266;52.150;4.768;2023-05-10T01:09:28;14.80;99.90
16315;DHT22;8266;52.150;4.768;2023-05-10T01:11:55;14.80;99.90
16315;DHT22;8266;52.150;4.768;2023-05-10T01:14:23;14.80;99.90
16315;DHT22;8266;52.150;4.768;2023-05-10T01:16:52;14.80;99.90
16315;DHT22;8266;52.150;4.768;2023-05-10T01:19:23;14.80;99.90
16315;DHT22;8266;52.150;4.768;2023-05-10T01:21:58;14.80;99.90
16315;DHT22;8266;52.150;4.768;2023-05-10T01:31:04;14.80;99.90
16315;DHT22;8266;52.150;4.768;2023-05-10T01:33:39;14.80;99.90
16315;DHT22;8266;52.150;4.768;2023-05-10T01:36:13;14.70;99.90
16315;DHT22;8266;52.150;4.768;2023-05-10T01:38:49;14.70;99.90
16315;DHT22;8266;52.150;4.768;2023-05-10T01:41:19;14.70;99.90
16315;DHT22;8266;52.150;4.768;2023-05-10T01:43:55;14.70;99.90
16315;DHT22;8266;52.150;4.768;2023-05-10T01:46:28;14.70;99.90
16315;DHT22;8266;52.150;4.768;2023-05-10T01:48:59;14.70;99.90
16315;DHT22;8266;52.150;4.768;2023-05-10T01:51:31;14.70;99.90
16315;DHT22;8266;52.150;4.768;2023-05-10T01:54:02;14.70;99.90
16315;DHT22;8266;52.150;4.768;2023-05-10T01:56:32;14.80;99.90
16315;DHT22;8266;52.150;4.768;2023-05-10T01:59:00;14.80;99.90
16315;DHT22;8266;52.150;4.768;2023-05-10T02:01:33;14.80;99.90
16315;DHT22;8266;52.150;4.768;2023-05-10T02:04:05;14.80;99.90
16315;DHT22;8266;52.150;4.768;2023-05-10T02:06:34;14.80;99.90
16315;DHT22;8266;52.150;4.768;2023-05-10T02:09:02;14.80;99.90
16315;DHT22;8266;52.150;4.768;2023-05-10T02:11:29;14.90;99.90
16315;DHT22;8266;52.150;4.768;2023-05-10T02:13:58;14.90;99.90
16315;DHT22;8266;52.150;4.768;2023-05-10T02:16:26;14.90;99.90
16315;DHT22;8266;52.150;4.768;2023-05-10T02:18:57;14.90;99.90
16315;DHT22;8266;52.150;4.768;2023-05-10T02:21:28;15.00;99.90
16315;DHT22;8266;52.150;4.768;2023-05-10T02:23:57;15.00;99.90
16315;DHT22;8266;52.150;4.768;2023-05-10T02:26:25;15.00;99.90
16315;DHT22;8266;52.150;4.768;2023-05-10T02:28:53;15.00;99.90
16315;DHT22;8266;52.150;4.768;2023-05-10T02:31:20;15.00;99.90
16315;DHT22;8266;52.150;4.768;2023-05-10T02:33:49;15.10;99.90
16315;DHT22;8266;52.150;4.768;2023-05-10T02:40:01;15.10;99.90
16315;DHT22;8266;52.150;4.768;2023-05-10T02:42:33;15.20;99.90
16315;DHT22;8266;52.150;4.768;2023-05-10T02:45:07;15.20;99.90
16315;DHT22;8266;52.150;4.768;2023-05-10T02:47:34;15.20;99.90
16315;DHT22;8266;52.150;4.768;2023-05-10T02:50:02;15.20;99.90
16315;DHT22;8266;52.150;4.768;2023-05-10T02:52:33;15.20;99.90
16315;DHT22;8266;52.150;4.768;2023-05-10T02:55:05;15.20;99.90
16315;DHT22;8266;52.150;4.768;2023-05-10T02:57:34;15.30;99.90
16315;DHT22;8266;52.150;4.768;2023-05-10T03:00:01;15.30;99.90
16315;DHT22;8266;52.150;4.768;2023-05-10T03:02:29;15.30;99.90
16315;DHT22;8266;52.150;4.768;2023-05-10T03:04:56;15.30;99.90
16315;DHT22;8266;52.150;4.768;2023-05-10T03:07:23;15.30;99.90
16315;DHT22;8266;52.150;4.768;2023-05-10T03:09:50;15.30;99.90
16315;DHT22;8266;52.150;4.768;2023-05-10T03:12:27;15.40;99.90
16315;DHT22;8266;52.150;4.768;2023-05-10T03:15:02;15.40;99.90
16315;DHT22;8266;52.150;4.768;2023-05-10T03:17:35;15.40;99.90
16315;DHT22;8266;52.150;4.768;2023-05-10T03:20:06;15.40;99.90
16315;DHT22;8266;52.150;4.768;2023-05-10T03:22:38;15.40;99.90
16315;DHT22;8266;52.150;4.768;2023-05-10T03:25:08;15.40;99.90
16315;DHT22;8266;52.150;4.768;2023-05-10T03:27:41;15.40;99.90
16315;DHT22;8266;52.150;4.768;2023-05-10T03:30:11;15.40;99.90
16315;DHT22;8266;52.150;4.768;2023-05-10T03:32:38;15.40;99.90
16315;DHT22;8266;52.150;4.768;2023-05-10T03:35:07;15.40;99.90
16315;DHT22;8266;52.150;4.768;2023-05-10T03:37:34;15.40;99.90
16315;DHT22;8266;52.150;4.768;2023-05-10T03:40:01;15.40;99.90
16315;DHT22;8266;52.150;4.768;2023-05-10T03:42:28;15.40;99.90
16315;DHT22;8266;52.150;4.768;2023-05-10T03:44:56;15.40;99.90
16315;DHT22;8266;52.150;4.768;2023-05-10T03:47:23;15.40;99.90
16315;DHT22;8266;52.150;4.768;2023-05-10T03:49:50;15.40;99.90
16315;DHT22;8266;52.150;4.768;2023-05-10T03:52:17;15.40;99.90
16315;DHT22;8266;52.150;4.768;2023-05-10T03:54:44;15.40;99.90
16315;DHT22;8266;52.150;4.768;2023-05-10T03:57:11;15.40;99.90
16315;DHT22;8266;52.150;4.768;2023-05-10T03:59:38;15.40;99.90
16315;DHT22;8266;52.150;4.768;2023-05-10T04:02:07;15.40;99.90
16315;DHT22;8266;52.150;4.768;2023-05-10T04:04:33;15.40;99.90
16315;DHT22;8266;52.150;4.768;2023-05-10T04:07:01;15.40;99.90
16315;DHT22;8266;52.150;4.768;2023-05-10T04:09:27;15.40;99.90
16315;DHT22;8266;52.150;4.768;2023-05-10T04:11:54;15.40;99.90
16315;DHT22;8266;52.150;4.768;2023-05-10T04:14:21;15.40;99.90
16315;DHT22;8266;52.150;4.768;2023-05-10T04:16:48;15.40;99.90
16315;DHT22;8266;52.150;4.768;2023-05-10T04:19:16;15.40;99.90
16315;DHT22;8266;52.150;4.768;2023-05-10T04:21:43;15.40;99.90
16315;DHT22;8266;52.150;4.768;2023-05-10T04:24:10;15.40;99.90
16315;DHT22;8266;52.150;4.768;2023-05-10T04:26:38;15.30;99.90
16315;DHT22;8266;52.150;4.768;2023-05-10T04:29:05;15.30;99.90
16315;DHT22;8266;52.150;4.768;2023-05-10T04:31:32;15.30;99.90
16315;DHT22;8266;52.150;4.768;2023-05-10T04:34:01;15.30;99.90
16315;DHT22;8266;52.150;4.768;2023-05-10T04:36:30;15.30;99.90
16315;DHT22;8266;52.150;4.768;2023-05-10T04:38:57;15.30;99.90
16315;DHT22;8266;52.150;4.768;2023-05-10T04:41:24;15.30;99.90
16315;DHT22;8266;52.150;4.768;2023-05-10T04:43:51;15.30;99.90
16315;DHT22;8266;52.150;4.768;2023-05-10T04:46:18;15.40;99.90
16315;DHT22;8266;52.150;4.768;2023-05-10T04:48:45;15.30;99.90
16315;DHT22;8266;52.150;4.768;2023-05-10T04:51:12;15.30;99.90
16315;DHT22;8266;52.150;4.768;2023-05-10T04:53:41;15.30;99.90
16315;DHT22;8266;52.150;4.768;2023-05-10T04:56:08;15.30;99.90
16315;DHT22;8266;52.150;4.768;2023-05-10T04:58:35;15.30;99.90
16315;DHT22;8266;52.150;4.768;2023-05-10T05:01:05;15.30;99.90
16315;DHT22;8266;52.150;4.768;2023-05-10T05:03:33;15.30;99.90
16315;DHT22;8266;52.150;4.768;2023-05-10T05:06:00;15.30;99.90
16315;DHT22;8266;52.150;4.768;2023-05-10T05:08:27;15.30;99.90
16315;DHT22;8266;52.150;4.768;2023-05-10T05:10:55;15.30;99.90
16315;DHT22;8266;52.150;4.768;2023-05-10T05:13:22;15.30;99.90
16315;DHT22;8266;52.150;4.768;2023-05-10T05:15:49;15.40;99.90
16315;DHT22;8266;52.150;4.768;2023-05-10T05:18:16;15.40;99.90
16315;DHT22;8266;52.150;4.768;2023-05-10T05:20:43;15.40;99.90
16315;DHT22;8266;52.150;4.768;2023-05-10T05:23:10;15.40;99.90
16315;DHT22;8266;52.150;4.768;2023-05-10T05:25:37;15.50;99.90
16315;DHT22;8266;52.150;4.768;2023-05-10T05:28:05;15.50;99.90
16315;DHT22;8266;52.150;4.768;2023-05-10T05:30:32;15.50;99.90
16315;DHT22;8266;52.150;4.768;2023-05-10T05:32:59;15.50;99.90
16315;DHT22;8266;52.150;4.768;2023-05-10T05:35:26;15.60;99.90
16315;DHT22;8266;52.150;4.768;2023-05-10T05:37:53;15.60;99.90
16315;DHT22;8266;52.150;4.768;2023-05-10T05:40:21;15.70;99.90
16315;DHT22;8266;52.150;4.768;2023-05-10T05:42:48;15.70;99.90
16315;DHT22;8266;52.150;4.768;2023-05-10T05:45:16;15.80;99.90
16315;DHT22;8266;52.150;4.768;2023-05-10T05:47:43;15.80;99.90
16315;DHT22;8266;52.150;4.768;2023-05-10T05:50:10;15.80;99.90
16315;DHT22;8266;52.150;4.768;2023-05-10T05:52:37;15.80;99.90
16315;DHT22;8266;52.150;4.768;2023-05-10T05:55:05;15.90;99.90
16315;DHT22;8266;52.150;4.768;2023-05-10T05:57:32;15.90;99.90
16315;DHT22;8266;52.150;4.768;2023-05-10T05:59:59;15.90;99.90
16315;DHT22;8266;52.150;4.768;2023-05-10T06:02:27;15.90;99.90
16315;DHT22;8266;52.150;4.768;2023-05-10T06:04:54;16.00;99.90
16315;DHT22;8266;52.150;4.768;2023-05-10T06:07:21;16.00;99.90
16315;DHT22;8266;52.150;4.768;2023-05-10T06:09:48;16.10;99.90
16315;DHT22;8266;52.150;4.768;2023-05-10T06:12:14;16.10;99.90
16315;DHT22;8266;52.150;4.768;2023-05-10T06:14:42;16.20;99.90
16315;DHT22;8266;52.150;4.768;2023-05-10T06:17:09;16.30;99.90
16315;DHT22;8266;52.150;4.768;2023-05-10T06:19:37;16.40;99.90
16315;DHT22;8266;52.150;4.768;2023-05-10T06:22:04;16.40;99.90
16315;DHT22;8266;52.150;4.768;2023-05-10T06:24:31;16.40;99.90
16315;DHT22;8266;52.150;4.768;2023-05-10T06:26:58;16.50;99.90
16315;DHT22;8266;52.150;4.768;2023-05-10T06:29:26;16.50;99.90
16315;DHT22;8266;52.150;4.768;2023-05-10T06:31:52;16.50;99.90
16315;DHT22;8266;52.150;4.768;2023-05-10T06:34:19;16.60;99.90
16315;DHT22;8266;52.150;4.768;2023-05-10T06:36:48;16.60;99.90
16315;DHT22;8266;52.150;4.768;2023-05-10T06:39:15;16.60;99.90
16315;DHT22;8266;52.150;4.768;2023-05-10T06:41:42;16.60;99.90
16315;DHT22;8266;52.150;4.768;2023-05-10T06:44:09;16.60;99.90
16315;DHT22;8266;52.150;4.768;2023-05-10T06:46:36;16.60;99.90
16315;DHT22;8266;52.150;4.768;2023-05-10T06:49:03;16.60;99.90
16315;DHT22;8266;52.150;4.768;2023-05-10T06:51:30;16.70;99.90
16315;DHT22;8266;52.150;4.768;2023-05-10T06:53:59;16.70;99.90
16315;DHT22;8266;52.150;4.768;2023-05-10T06:56:26;16.70;99.90
16315;DHT22;8266;52.150;4.768;2023-05-10T06:58:53;16.70;99.90
16315;DHT22;8266;52.150;4.768;2023-05-10T07:01:21;16.70;99.90
16315;DHT22;8266;52.150;4.768;2023-05-10T07:03:48;16.70;99.90
16315;DHT22;8266;52.150;4.768;2023-05-10T07:06:15;16.80;99.90
16315;DHT22;8266;52.150;4.768;2023-05-10T07:08:42;16.80;99.90
16315;DHT22;8266;52.150;4.768;2023-05-10T07:11:10;16.90;99.90
16315;DHT22;8266;52.150;4.768;2023-05-10T07:13:37;17.00;99.90
16315;DHT22;8266;52.150;4.768;2023-05-10T07:16:07;17.10;99.90
16315;DHT22;8266;52.150;4.768;2023-05-10T07:18:34;17.20;99.90
16315;DHT22;8266;52.150;4.768;2023-05-10T07:21:01;17.30;99.90
16315;DHT22;8266;52.150;4.768;2023-05-10T07:23:28;17.30;99.90
16315;DHT22;8266;52.150;4.768;2023-05-10T07:25:55;17.40;99.90
16315;DHT22;8266;52.150;4.768;2023-05-10T07:28:24;17.50;99.90
16315;DHT22;8266;52.150;4.768;2023-05-10T07:30:51;17.50;99.90
16315;DHT22;8266;52.150;4.768;2023-05-10T07:33:18;17.60;99.90
16315;DHT22;8266;52.150;4.768;2023-05-10T07:35:45;17.60;99.90
16315;DHT22;8266;52.150;4.768;2023-05-10T07:38:12;17.60;99.90
16315;DHT22;8266;52.150;4.768;2023-05-10T07:40:39;17.70;99.90
16315;DHT22;8266;52.150;4.768;2023-05-10T07:43:06;17.80;99.90
16315;DHT22;8266;52.150;4.768;2023-05-10T07:45:34;17.90;99.90
16315;DHT22;8266;52.150;4.768;2023-05-10T07:48:02;17.90;99.90
16315;DHT22;8266;52.150;4.768;2023-05-10T07:50:29;18.00;99.90
16315;DHT22;8266;52.150;4.768;2023-05-10T07:52:56;18.10;99.90
16315;DHT22;8266;52.150;4.768;2023-05-10T07:55:23;18.10;99.90
16315;DHT22;8266;52.150;4.768;2023-05-10T07:57:50;18.20;99.90
16315;DHT22;8266;52.150;4.768;2023-05-10T08:00:18;18.30;99.90
16315;DHT22;8266;52.150;4.768;2023-05-10T08:02:47;18.40;99.90
16315;DHT22;8266;52.150;4.768;2023-05-10T08:05:14;18.40;99.90
16315;DHT22;8266;52.150;4.768;2023-05-10T08:07:41;18.60;99.90
16315;DHT22;8266;52.150;4.768;2023-05-10T08:10:09;18.60;99.90
16315;DHT22;8266;52.150;4.768;2023-05-10T08:12:39;18.70;99.90
16315;DHT22;8266;52.150;4.768;2023-05-10T08:15:07;18.80;99.90
16315;DHT22;8266;52.150;4.768;2023-05-10T08:17:34;18.80;99.90
16315;DHT22;8266;52.150;4.768;2023-05-10T08:20:03;18.90;99.90
16315;DHT22;8266;52.150;4.768;2023-05-10T08:22:30;19.00;99.90
16315;DHT22;8266;52.150;4.768;2023-05-10T08:24:57;19.10;99.90
16315;DHT22;8266;52.150;4.768;2023-05-10T08:27:24;19.10;99.90
16315;DHT22;8266;52.150;4.768;2023-05-10T08:29:51;19.10;99.90
16315;DHT22;8266;52.150;4.768;2023-05-10T08:32:18;19.10;99.90
16315;DHT22;8266;52.150;4.768;2023-05-10T08:34:45;19.10;99.90
16315;DHT22;8266;52.150;4.768;2023-05-10T08:37:13;19.00;99.90
16315;DHT22;8266;52.150;4.768;2023-05-10T08:39:40;19.00;99.90
16315;DHT22;8266;52.150;4.768;2023-05-10T08:42:07;19.00;99.90
16315;DHT22;8266;52.150;4.768;2023-05-10T08:44:36;19.00;99.90
16315;DHT22;8266;52.150;4.768;2023-05-10T08:47:06;18.90;99.90
16315;DHT22;8266;52.150;4.768;2023-05-10T08:49:36;18.90;99.90
16315;DHT22;8266;52.150;4.768;2023-05-10T08:52:04;18.80;99.90
16315;DHT22;8266;52.150;4.768;2023-05-10T08:54:34;18.80;99.90
16315;DHT22;8266;52.150;4.768;2023-05-10T08:57:01;18.80;99.90
16315;DHT22;8266;52.150;4.768;2023-05-10T08:59:28;18.80;99.90
16315;DHT22;8266;52.150;4.768;2023-05-10T09:01:57;18.70;99.90
16315;DHT22;8266;52.150;4.768;2023-05-10T09:04:24;18.70;99.90
16315;DHT22;8266;52.150;4.768;2023-05-10T09:06:51;18.60;99.90
16315;DHT22;8266;52.150;4.768;2023-05-10T09:09:19;18.60;99.90
16315;DHT22;8266;52.150;4.768;2023-05-10T09:11:48;18.70;99.90
16315;DHT22;8266;52.150;4.768;2023-05-10T09:14:16;18.70;99.90
16315;DHT22;8266;52.150;4.768;2023-05-10T09:16:43;18.70;99.90
16315;DHT22;8266;52.150;4.768;2023-05-10T09:19:11;18.80;99.90
16315;DHT22;8266;52.150;4.768;2023-05-10T09:21:38;18.80;99.90
16315;DHT22;8266;52.150;4.768;2023-05-10T09:24:05;18.90;99.90
16315;DHT22;8266;52.150;4.768;2023-05-10T09:26:33;18.90;99.90
16315;DHT22;8266;52.150;4.768;2023-05-10T09:29:03;19.00;99.90
16315;DHT22;8266;52.150;4.768;2023-05-10T09:31:45;19.10;99.90
16315;DHT22;8266;52.150;4.768;2023-05-10T09:34:16;19.20;99.90
16315;DHT22;8266;52.150;4.768;2023-05-10T09:36:51;19.20;99.90
16315;DHT22;8266;52.150;4.768;2023-05-10T09:39:19;19.30;99.90
16315;DHT22;8266;52.150;4.768;2023-05-10T09:41:46;19.40;99.90
16315;DHT22;8266;52.150;4.768;2023-05-10T09:44:17;19.50;99.90
16315;DHT22;8266;52.150;4.768;2023-05-10T09:46:49;19.50;99.90
16315;DHT22;8266;52.150;4.768;2023-05-10T09:49:18;19.60;99.90
16315;DHT22;8266;52.150;4.768;2023-05-10T09:51:45;19.60;99.90
16315;DHT22;8266;52.150;4.768;2023-05-10T09:54:15;19.60;99.90
16315;DHT22;8266;52.150;4.768;2023-05-10T09:56:42;19.60;99.90
16315;DHT22;8266;52.150;4.768;2023-05-10T09:59:11;19.60;99.90
16315;DHT22;8266;52.150;4.768;2023-05-10T10:01:40;19.60;99.90
16315;DHT22;8266;52.150;4.768;2023-05-10T10:04:09;19.60;99.90
16315;DHT22;8266;52.150;4.768;2023-05-10T10:06:37;19.60;99.90
16315;DHT22;8266;52.150;4.768;2023-05-10T10:09:04;19.60;99.90
16315;DHT22;8266;52.150;4.768;2023-05-10T10:11:31;19.50;99.90
16315;DHT22;8266;52.150;4.768;2023-05-10T10:13:58;19.50;99.90
16315;DHT22;8266;52.150;4.768;2023-05-10T10:16:27;19.50;99.90
16315;DHT22;8266;52.150;4.768;2023-05-10T10:18:56;19.50;99.90
16315;DHT22;8266;52.150;4.768;2023-05-10T10:21:23;19.50;99.90
16315;DHT22;8266;52.150;4.768;2023-05-10T10:23:51;19.50;99.90
16315;DHT22;8266;52.150;4.768;2023-05-10T10:26:19;19.50;99.90
16315;DHT22;8266;52.150;4.768;2023-05-10T10:28:51;19.70;99.90
16315;DHT22;8266;52.150;4.768;2023-05-10T10:31:27;19.80;99.90
16315;DHT22;8266;52.150;4.768;2023-05-10T10:34:05;19.90;99.90
16315;DHT22;8266;52.150;4.768;2023-05-10T10:36:33;20.10;99.90
16315;DHT22;8266;52.150;4.768;2023-05-10T10:39:09;20.20;99.90
16315;DHT22;8266;52.150;4.768;2023-05-10T10:41:38;20.40;99.90
16315;DHT22;8266;52.150;4.768;2023-05-10T10:44:26;20.50;99.90
16315;DHT22;8266;52.150;4.768;2023-05-10T10:47:02;20.70;99.90
16315;DHT22;8266;52.150;4.768;2023-05-10T10:49:33;20.80;99.90
16315;DHT22;8266;52.150;4.768;2023-05-10T10:52:23;20.90;99.90
16315;DHT22;8266;52.150;4.768;2023-05-10T10:54:57;21.00;99.90
16315;DHT22;8266;52.150;4.768;2023-05-10T10:57:25;21.00;99.90
16315;DHT22;8266;52.150;4.768;2023-05-10T11:00:27;21.00;99.90
16315;DHT22;8266;52.150;4.768;2023-05-10T11:02:57;21.00;99.90
16315;DHT22;8266;52.150;4.768;2023-05-10T11:05:35;20.90;99.90
16315;DHT22;8266;52.150;4.768;2023-05-10T11:08:17;20.80;99.90
16315;DHT22;8266;52.150;4.768;2023-05-10T11:11:04;20.70;99.90
16315;DHT22;8266;52.150;4.768;2023-05-10T11:13:35;20.50;99.90
16315;DHT22;8266;52.150;4.768;2023-05-10T11:16:18;20.50;99.90
16315;DHT22;8266;52.150;4.768;2023-05-10T11:18:58;20.30;99.90
16315;DHT22;8266;52.150;4.768;2023-05-10T11:21:26;20.20;99.90
16315;DHT22;8266;52.150;4.768;2023-05-10T11:23:55;20.10;99.90
16315;DHT22;8266;52.150;4.768;2023-05-10T11:26:23;20.00;99.90
16315;DHT22;8266;52.150;4.768;2023-05-10T11:28:53;20.00;99.90
16315;DHT22;8266;52.150;4.768;2023-05-10T11:31:21;20.00;99.90
16315;DHT22;8266;52.150;4.768;2023-05-10T11:33:51;19.90;99.90
16315;DHT22;8266;52.150;4.768;2023-05-10T11:36:19;20.00;99.90
16315;DHT22;8266;52.150;4.768;2023-05-10T11:38:48;20.10;99.90
16315;DHT22;8266;52.150;4.768;2023-05-10T11:41:17;20.10;99.90
16315;DHT22;8266;52.150;4.768;2023-05-10T11:43:46;20.20;99.90
16315;DHT22;8266;52.150;4.768;2023-05-10T11:46:14;20.20;99.90
16315;DHT22;8266;52.150;4.768;2023-05-10T11:48:42;20.30;99.90
16315;DHT22;8266;52.150;4.768;2023-05-10T11:51:10;20.20;99.90
16315;DHT22;8266;52.150;4.768;2023-05-10T11:53:37;20.20;99.90
16315;DHT22;8266;52.150;4.768;2023-05-10T11:56:07;20.20;99.90
16315;DHT22;8266;52.150;4.768;2023-05-10T11:58:36;20.20;99.90
16315;DHT22;8266;52.150;4.768;2023-05-10T12:01:04;20.20;99.90
16315;DHT22;8266;52.150;4.768;2023-05-10T12:03:31;20.20;99.90
16315;DHT22;8266;52.150;4.768;2023-05-10T12:06:02;20.10;99.90
16315;DHT22;8266;52.150;4.768;2023-05-10T12:08:30;20.10;99.90
16315;DHT22;8266;52.150;4.768;2023-05-10T12:11:06;20.00;99.90
16315;DHT22;8266;52.150;4.768;2023-05-10T12:13:37;20.10;99.90
16315;DHT22;8266;52.150;4.768;2023-05-10T12:16:13;20.10;99.90
16315;DHT22;8266;52.150;4.768;2023-05-10T12:18:40;20.10;99.90
16315;DHT22;8266;52.150;4.768;2023-05-10T12:21:09;20.20;99.90
16315;DHT22;8266;52.150;4.768;2023-05-10T12:23:37;20.30;99.90
16315;DHT22;8266;52.150;4.768;2023-05-10T12:26:06;20.30;99.90
16315;DHT22;8266;52.150;4.768;2023-05-10T12:28:33;20.40;99.90
16315;DHT22;8266;52.150;4.768;2023-05-10T12:31:01;20.40;99.90
16315;DHT22;8266;52.150;4.768;2023-05-10T12:33:35;20.40;99.90
16315;DHT22;8266;52.150;4.768;2023-05-10T12:36:04;20.50;99.90
16315;DHT22;8266;52.150;4.768;2023-05-10T12:38:33;20.50;99.90
16315;DHT22;8266;52.150;4.768;2023-05-10T12:41:02;20.50;99.90
16315;DHT22;8266;52.150;4.768;2023-05-10T12:43:31;20.50;99.90
16315;DHT22;8266;52.150;4.768;2023-05-10T12:46:03;20.50;99.90
16315;DHT22;8266;52.150;4.768;2023-05-10T12:48:30;20.50;99.90
16315;DHT22;8266;52.150;4.768;2023-05-10T12:50:59;20.50;99.90
16315;DHT22;8266;52.150;4.768;2023-05-10T12:53:26;20.50;99.90
16315;DHT22;8266;52.150;4.768;2023-05-10T12:55:53;20.50;99.90
16315;DHT22;8266;52.150;4.768;2023-05-10T12:58:20;20.50;99.90
16315;DHT22;8266;52.150;4.768;2023-05-10T13:00:48;20.50;99.90
16315;DHT22;8266;52.150;4.768;2023-05-10T13:03:17;20.50;99.90
16315;DHT22;8266;52.150;4.768;2023-05-10T13:05:44;20.50;99.90
16315;DHT22;8266;52.150;4.768;2023-05-10T13:08:11;20.40;99.90
16315;DHT22;8266;52.150;4.768;2023-05-10T13:10:38;20.40;99.90
16315;DHT22;8266;52.150;4.768;2023-05-10T13:13:05;20.30;99.90
16315;DHT22;8266;52.150;4.768;2023-05-10T13:15:33;20.30;99.90
16315;DHT22;8266;52.150;4.768;2023-05-10T13:18:01;20.20;99.90
16315;DHT22;8266;52.150;4.768;2023-05-10T13:20:28;20.10;99.90
16315;DHT22;8266;52.150;4.768;2023-05-10T13:22:55;20.00;99.90
16315;DHT22;8266;52.150;4.768;2023-05-10T13:25:22;20.00;99.90
16315;DHT22;8266;52.150;4.768;2023-05-10T13:27:49;19.90;99.90
16315;DHT22;8266;52.150;4.768;2023-05-10T13:30:16;19.80;99.90
16315;DHT22;8266;52.150;4.768;2023-05-10T13:32:43;19.80;99.90
16315;DHT22;8266;52.150;4.768;2023-05-10T13:35:12;19.80;99.90
16315;DHT22;8266;52.150;4.768;2023-05-10T13:37:39;19.90;99.90
16315;DHT22;8266;52.150;4.768;2023-05-10T13:40:07;19.90;99.90
16315;DHT22;8266;52.150;4.768;2023-05-10T13:42:34;20.00;99.90
16315;DHT22;8266;52.150;4.768;2023-05-10T13:45:01;20.20;99.90
16315;DHT22;8266;52.150;4.768;2023-05-10T13:47:28;20.20;99.90
16315;DHT22;8266;52.150;4.768;2023-05-10T13:49:55;20.30;99.90
16315;DHT22;8266;52.150;4.768;2023-05-10T13:52:24;20.40;99.90
16315;DHT22;8266;52.150;4.768;2023-05-10T13:54:51;20.40;99.90
16315;DHT22;8266;52.150;4.768;2023-05-10T13:57:20;20.50;99.90
16315;DHT22;8266;52.150;4.768;2023-05-10T13:59:47;20.60;99.90
16315;DHT22;8266;52.150;4.768;2023-05-10T14:02:14;20.60;99.90
16315;DHT22;8266;52.150;4.768;2023-05-10T14:04:41;20.60;99.90
16315;DHT22;8266;52.150;4.768;2023-05-10T14:07:08;20.70;99.90
16315;DHT22;8266;52.150;4.768;2023-05-10T14:09:37;20.60;99.90
16315;DHT22;8266;52.150;4.768;2023-05-10T14:12:04;20.60;99.90
16315;DHT22;8266;52.150;4.768;2023-05-10T14:14:30;20.60;99.90
16315;DHT22;8266;52.150;4.768;2023-05-10T14:16:57;20.60;99.90
16315;DHT22;8266;52.150;4.768;2023-05-10T14:19:24;20.50;99.90
16315;DHT22;8266;52.150;4.768;2023-05-10T14:21:52;20.40;99.90
16315;DHT22;8266;52.150;4.768;2023-05-10T14:24:19;20.40;99.90
16315;DHT22;8266;52.150;4.768;2023-05-10T14:26:47;20.30;99.90
16315;DHT22;8266;52.150;4.768;2023-05-10T14:29:14;20.30;99.90
16315;DHT22;8266;52.150;4.768;2023-05-10T14:31:41;20.30;99.90
16315;DHT22;8266;52.150;4.768;2023-05-10T14:34:08;20.20;99.90
16315;DHT22;8266;52.150;4.768;2023-05-10T14:36:35;20.10;99.90
16315;DHT22;8266;52.150;4.768;2023-05-10T14:39:02;20.10;99.90
16315;DHT22;8266;52.150;4.768;2023-05-10T14:41:29;20.10;99.90
16315;DHT22;8266;52.150;4.768;2023-05-10T14:43:57;20.10;99.90
16315;DHT22;8266;52.150;4.768;2023-05-10T14:46:24;20.10;99.90
16315;DHT22;8266;52.150;4.768;2023-05-10T14:48:52;20.20;99.90
16315;DHT22;8266;52.150;4.768;2023-05-10T14:51:18;20.20;99.90
16315;DHT22;8266;52.150;4.768;2023-05-10T14:53:47;20.30;99.90
16315;DHT22;8266;52.150;4.768;2023-05-10T14:56:14;20.30;99.90
16315;DHT22;8266;52.150;4.768;2023-05-10T14:58:41;20.40;99.90
16315;DHT22;8266;52.150;4.768;2023-05-10T15:01:10;20.40;99.90
16315;DHT22;8266;52.150;4.768;2023-05-10T15:03:37;20.50;99.90
16315;DHT22;8266;52.150;4.768;2023-05-10T15:06:04;20.50;99.90
16315;DHT22;8266;52.150;4.768;2023-05-10T15:08:31;20.50;99.90
16315;DHT22;8266;52.150;4.768;2023-05-10T15:10:58;20.50;99.90
16315;DHT22;8266;52.150;4.768;2023-05-10T15:13:26;20.50;99.90
16315;DHT22;8266;52.150;4.768;2023-05-10T15:15:53;20.50;99.90
16315;DHT22;8266;52.150;4.768;2023-05-10T15:18:21;20.50;99.90
16315;DHT22;8266;52.150;4.768;2023-05-10T15:20:48;20.50;99.90
16315;DHT22;8266;52.150;4.768;2023-05-10T15:23:15;20.60;99.90
16315;DHT22;8266;52.150;4.768;2023-05-10T15:25:42;20.50;99.90
16315;DHT22;8266;52.150;4.768;2023-05-10T15:28:09;20.60;99.90
16315;DHT22;8266;52.150;4.768;2023-05-10T15:30:36;20.60;99.90
16315;DHT22;8266;52.150;4.768;2023-05-10T15:33:03;20.60;99.90
16315;DHT22;8266;52.150;4.768;2023-05-10T15:35:31;20.70;99.90
16315;DHT22;8266;52.150;4.768;2023-05-10T15:37:58;20.70;99.90
16315;DHT22;8266;52.150;4.768;2023-05-10T15:40:25;20.70;99.90
16315;DHT22;8266;52.150;4.768;2023-05-10T15:42:52;20.70;99.90
16315;DHT22;8266;52.150;4.768;2023-05-10T15:45:19;20.70;99.90
16315;DHT22;8266;52.150;4.768;2023-05-10T15:47:47;20.70;99.90
16315;DHT22;8266;52.150;4.768;2023-05-10T15:50:14;20.60;99.90
16315;DHT22;8266;52.150;4.768;2023-05-10T15:52:43;20.60;99.90
16315;DHT22;8266;52.150;4.768;2023-05-10T15:55:10;20.60;99.90
16315;DHT22;8266;52.150;4.768;2023-05-10T15:57:38;20.50;99.90
16315;DHT22;8266;52.150;4.768;2023-05-10T16:00:06;20.50;99.90
16315;DHT22;8266;52.150;4.768;2023-05-10T16:02:34;20.50;99.90